createdAt,value
2022-08-26T00:00:27.169Z,21.32
2022-08-26T00:02:53.740Z,21.39
2022-08-26T00:05:20.437Z,21.18
2022-08-26T00:07:47.792Z,21.08
2022-08-26T00:10:15.311Z,20.95
2022-08-26T00:12:41.886Z,21.05
2022-08-26T00:15:08.404Z,21.22
2022-08-26T00:17:35.209Z,21.33
2022-08-26T00:20:01.646Z,21.30
2022-08-26T00:22:28.058Z,21.37
2022-08-26T00:24:55.060Z,21.44
2022-08-26T00:27:21.547Z,21.11
2022-08-26T00:29:48.610Z,21.19
2022-08-26T00:32:15.462Z,21.05
2022-08-26T00:34:42.418Z,21.14
2022-08-26T00:37:11.638Z,21.23
2022-08-26T00:39:41.272Z,21.27
2022-08-26T00:42:07.736Z,21.10
2022-08-26T00:44:34.196Z,21.13
2022-08-26T00:47:00.975Z,20.79
2022-08-26T00:49:27.503Z,20.95
2022-08-26T00:51:56.102Z,20.90
2022-08-26T00:54:22.894Z,20.70
2022-08-26T00:56:49.412Z,20.72
2022-08-26T00:59:17.685Z,20.70
2022-08-26T01:01:46.030Z,20.33
2022-08-26T01:04:12.864Z,20.57
2022-08-26T01:06:39.582Z,20.87
2022-08-26T01:09:06.434Z,20.97
2022-08-26T01:11:33.280Z,20.98
2022-08-26T01:13:59.716Z,20.96
2022-08-26T01:16:26.423Z,20.91
2022-08-26T01:18:53.550Z,20.85
2022-08-26T01:21:21.373Z,20.68
2022-08-26T01:23:49.690Z,20.80
2022-08-26T01:26:19.791Z,20.76
2022-08-26T01:28:46.500Z,20.78
2022-08-26T01:31:17.423Z,20.75
2022-08-26T01:33:44.447Z,20.56
2022-08-26T01:36:11.446Z,20.70
2022-08-26T01:38:38.179Z,20.63
2022-08-26T01:41:04.901Z,20.70
2022-08-26T01:43:46.364Z,20.68
2022-08-26T01:46:14.914Z,20.73
2022-08-26T01:48:41.778Z,20.60
2022-08-26T01:51:08.448Z,20.45
2022-08-26T01:53:34.846Z,20.53
2022-08-26T01:56:01.281Z,20.63
2022-08-26T01:58:30.724Z,20.68
2022-08-26T02:00:57.430Z,20.74
2022-08-26T02:03:26.716Z,20.75
2022-08-26T02:05:53.259Z,20.76
2022-08-26T02:08:24.543Z,20.79
2022-08-26T02:10:54.608Z,20.82
2022-08-26T02:13:21.785Z,20.78
2022-08-26T02:15:48.979Z,20.70
2022-08-26T02:18:16.350Z,20.72
2022-08-26T02:20:43.165Z,20.75
2022-08-26T02:23:09.918Z,20.76
2022-08-26T02:25:36.609Z,20.75
2022-08-26T02:28:04.035Z,20.71
2022-08-26T02:30:30.982Z,20.72
2022-08-26T02:32:57.544Z,20.67
2022-08-26T02:35:24.202Z,20.66
2022-08-26T02:37:50.843Z,20.66
2022-08-26T02:40:17.319Z,20.55
2022-08-26T02:42:43.800Z,20.59
2022-08-26T02:45:10.415Z,20.46
2022-08-26T02:47:36.847Z,20.46
2022-08-26T02:50:03.901Z,20.40
2022-08-26T02:52:30.374Z,20.41
2022-08-26T02:54:58.781Z,20.39
2022-08-26T02:57:26.506Z,20.38
2022-08-26T02:59:52.950Z,20.42
2022-08-26T03:02:19.429Z,20.43
2022-08-26T03:04:57.928Z,20.44
2022-08-26T03:07:28.554Z,20.37
2022-08-26T03:09:55.318Z,20.35
2022-08-26T03:12:22.245Z,20.37
2022-08-26T03:14:48.697Z,20.37
2022-08-26T03:17:15.240Z,20.37
2022-08-26T03:19:41.694Z,20.41
2022-08-26T03:22:08.126Z,20.40
2022-08-26T03:24:34.812Z,20.38
2022-08-26T03:27:01.304Z,20.33
2022-08-26T03:29:32.932Z,20.11
2022-08-26T03:32:00.194Z,19.99
2022-08-26T03:34:26.613Z,20.07
2022-08-26T03:36:54.446Z,20.07
2022-08-26T03:39:21.946Z,20.06
2022-08-26T03:41:48.364Z,20.07
2022-08-26T03:44:14.987Z,20.05
2022-08-26T03:46:41.470Z,19.45
2022-08-26T03:49:10.527Z,19.57
2022-08-26T03:51:38.842Z,19.70
2022-08-26T03:54:05.956Z,19.83
2022-08-26T03:56:35.830Z,19.79
2022-08-26T03:59:02.273Z,19.67
2022-08-26T04:01:29.484Z,19.49
2022-08-26T04:03:57.397Z,19.66
2022-08-26T04:06:26.724Z,19.67
2022-08-26T04:08:53.279Z,19.72
2022-08-26T04:11:19.956Z,19.66
2022-08-26T04:13:46.848Z,19.71
2022-08-26T04:16:14.295Z,19.58
2022-08-26T04:18:46.453Z,19.60
2022-08-26T04:21:13.670Z,19.65
2022-08-26T04:23:46.875Z,19.72
2022-08-26T04:26:14.397Z,19.78
2022-08-26T04:28:40.989Z,19.82
2022-08-26T04:31:07.717Z,19.90
2022-08-26T04:33:34.152Z,19.89
2022-08-26T04:36:08.417Z,19.90
2022-08-26T04:38:35.108Z,19.81
2022-08-26T04:41:01.805Z,19.83
2022-08-26T04:43:32.563Z,19.87
2022-08-26T04:45:59.382Z,19.85
2022-08-26T04:48:26.110Z,19.98
2022-08-26T04:50:53.103Z,20.02
2022-08-26T04:53:22.501Z,20.09
2022-08-26T04:55:51.570Z,20.13
2022-08-26T04:58:21.986Z,20.19
2022-08-26T05:00:48.376Z,20.21
2022-08-26T05:03:15.809Z,20.23
2022-08-26T05:05:43.273Z,20.27
2022-08-26T05:08:09.931Z,20.29
2022-08-26T05:10:38.008Z,20.31
2022-08-26T05:13:05.098Z,20.33
2022-08-26T05:15:37.955Z,20.39
2022-08-26T05:18:04.558Z,20.37
2022-08-26T05:20:31.086Z,20.31
2022-08-26T05:22:57.487Z,20.42
2022-08-26T05:25:23.900Z,20.49
2022-08-26T05:27:53.991Z,20.58
2022-08-26T05:30:21.053Z,20.62
2022-08-26T05:32:47.461Z,20.68
2022-08-26T05:35:15.102Z,20.73
2022-08-26T05:37:42.427Z,20.79
2022-08-26T05:40:08.932Z,20.79
2022-08-26T05:42:37.547Z,20.81
2022-08-26T05:45:03.996Z,20.87
2022-08-26T05:47:30.579Z,20.87
2022-08-26T05:49:57.120Z,20.89
2022-08-26T05:52:25.880Z,20.97
2022-08-26T05:54:52.559Z,20.92
2022-08-26T05:57:19.056Z,20.97
2022-08-26T05:59:49.629Z,21.04
2022-08-26T06:02:16.228Z,21.09
2022-08-26T06:04:43.705Z,21.19
2022-08-26T06:07:13.548Z,21.28
2022-08-26T06:09:40.259Z,21.33
2022-08-26T06:12:09.302Z,21.36
2022-08-26T06:14:36.013Z,21.43
2022-08-26T06:17:02.532Z,21.52
2022-08-26T06:19:32.701Z,21.59
2022-08-26T06:22:00.925Z,21.62
2022-08-26T06:24:27.583Z,21.64
2022-08-26T06:26:54.173Z,21.62
2022-08-26T06:29:24.726Z,21.55
2022-08-26T06:31:51.233Z,21.59
2022-08-26T06:34:18.259Z,21.63
2022-08-26T06:36:44.693Z,21.74
2022-08-26T06:39:11.088Z,21.83
2022-08-26T06:41:41.441Z,21.93
2022-08-26T06:44:09.824Z,21.98
2022-08-26T06:46:36.361Z,22.01
2022-08-26T06:49:02.849Z,22.00
2022-08-26T06:51:29.254Z,22.16
2022-08-26T06:53:55.697Z,22.20
2022-08-26T06:56:22.112Z,22.26
2022-08-26T06:58:48.560Z,22.20
2022-08-26T07:01:15.077Z,22.28
2022-08-26T07:03:41.685Z,22.26
2022-08-26T07:06:08.196Z,22.27
2022-08-26T07:08:34.613Z,22.35
2022-08-26T07:11:01.167Z,22.45
2022-08-26T07:13:30.498Z,22.55
2022-08-26T07:15:57.539Z,22.62
2022-08-26T07:18:29.475Z,22.68
2022-08-26T07:20:55.850Z,22.60
2022-08-26T07:23:22.604Z,22.68
2022-08-26T07:25:49.188Z,22.64
2022-08-26T07:28:15.661Z,22.66
2022-08-26T07:30:42.152Z,22.74
2022-08-26T07:33:08.993Z,22.77
2022-08-26T07:35:37.349Z,22.82
2022-08-26T07:38:03.794Z,22.86
2022-08-26T07:40:30.450Z,22.77
2022-08-26T07:42:56.923Z,22.68
2022-08-26T07:45:23.568Z,22.72
2022-08-26T07:47:49.972Z,22.60
2022-08-26T07:50:16.306Z,22.67
2022-08-26T07:52:42.688Z,22.79
2022-08-26T07:55:09.103Z,22.79
2022-08-26T07:57:35.522Z,22.90
2022-08-26T08:00:06.418Z,22.90
2022-08-26T08:02:32.900Z,23.00
2022-08-26T08:05:01.043Z,23.00
2022-08-26T08:07:44.286Z,23.02
2022-08-26T08:10:11.871Z,23.04
2022-08-26T08:12:40.162Z,23.08
2022-08-26T08:15:07.526Z,23.05
2022-08-26T08:17:34.456Z,23.06
2022-08-26T08:20:02.246Z,23.10
2022-08-26T08:22:30.872Z,23.24
2022-08-26T08:24:57.609Z,23.41
2022-08-26T08:27:24.443Z,23.47
2022-08-26T08:29:50.879Z,23.36
2022-08-26T08:32:18.994Z,23.29
2022-08-26T08:34:45.493Z,23.25
2022-08-26T08:37:11.995Z,23.20
2022-08-26T08:39:38.894Z,23.33
2022-08-26T08:42:06.594Z,23.34
2022-08-26T08:44:33.248Z,23.32
2022-08-26T08:46:59.706Z,23.40
2022-08-26T08:49:26.134Z,23.59
2022-08-26T08:51:53.114Z,23.52
2022-08-26T08:54:22.031Z,23.22
2022-08-26T08:56:49.016Z,23.26
2022-08-26T08:59:16.302Z,23.39
2022-08-26T09:01:43.095Z,23.41
2022-08-26T09:04:09.664Z,23.23
2022-08-26T09:06:37.422Z,23.36
2022-08-26T09:09:07.729Z,23.38
2022-08-26T09:11:34.806Z,23.38
2022-08-26T09:14:01.527Z,23.52
2022-08-26T09:16:28.411Z,23.49
2022-08-26T09:18:57.254Z,23.42
2022-08-26T09:21:25.290Z,23.53
2022-08-26T09:23:52.034Z,23.64
2022-08-26T09:26:19.507Z,23.53
2022-08-26T09:28:46.096Z,23.54
2022-08-26T09:31:13.666Z,23.62
2022-08-26T09:33:40.334Z,23.76
2022-08-26T09:36:07.822Z,23.64
2022-08-26T09:38:36.852Z,23.42
2022-08-26T09:41:05.146Z,23.52
2022-08-26T09:43:31.750Z,23.46
2022-08-26T09:45:59.812Z,22.91
2022-08-26T09:48:26.348Z,22.53
2022-08-26T09:50:53.564Z,23.24
2022-08-26T09:53:21.127Z,23.29
2022-08-26T09:55:55.136Z,23.79
2022-08-26T09:58:21.706Z,22.94
2022-08-26T10:00:48.267Z,23.15
2022-08-26T10:03:17.336Z,23.64
2022-08-26T10:05:44.320Z,23.92
2022-08-26T10:08:10.858Z,24.22
2022-08-26T10:10:38.635Z,24.41
2022-08-26T10:13:06.588Z,24.31
2022-08-26T10:15:33.057Z,24.54
2022-08-26T10:17:59.596Z,24.79
2022-08-26T10:20:26.341Z,24.85
2022-08-26T10:22:53.073Z,24.79
2022-08-26T10:25:20.060Z,24.85
2022-08-26T10:27:51.075Z,24.94
2022-08-26T10:30:19.765Z,25.09
2022-08-26T10:32:46.401Z,25.03
2022-08-26T10:35:12.867Z,25.05
2022-08-26T10:37:39.339Z,25.03
2022-08-26T10:40:05.734Z,25.08
2022-08-26T10:42:32.216Z,25.01
2022-08-26T10:44:58.861Z,25.16
2022-08-26T10:47:25.310Z,25.07
2022-08-26T10:49:51.727Z,25.01
2022-08-26T10:52:18.158Z,25.08
2022-08-26T10:54:44.677Z,25.10
2022-08-26T10:57:11.126Z,25.22
2022-08-26T10:59:37.481Z,25.29
2022-08-26T11:02:04.087Z,25.13
2022-08-26T11:04:31.277Z,24.93
2022-08-26T11:07:01.432Z,25.06
2022-08-26T11:09:28.797Z,25.21
2022-08-26T11:11:55.406Z,25.18
2022-08-26T11:14:29.041Z,25.25
2022-08-26T11:16:56.822Z,25.33
2022-08-26T11:19:24.581Z,25.32
2022-08-26T11:21:51.041Z,25.24
2022-08-26T11:24:17.524Z,25.27
2022-08-26T11:26:55.314Z,25.30
2022-08-26T11:29:22.263Z,25.17
2022-08-26T11:31:48.683Z,24.69
2022-08-26T11:34:15.330Z,25.00
2022-08-26T11:36:42.184Z,24.87
2022-08-26T11:39:08.576Z,25.00
2022-08-26T11:41:36.322Z,25.34
2022-08-26T11:44:04.009Z,25.46
2022-08-26T11:46:31.285Z,25.63
2022-08-26T11:48:58.580Z,25.81
2022-08-26T11:51:25.144Z,25.80
2022-08-26T11:53:51.565Z,25.89
2022-08-26T11:56:17.993Z,25.86
2022-08-26T11:58:48.020Z,25.91
2022-08-26T12:01:14.433Z,25.42
2022-08-26T12:03:43.817Z,25.55
2022-08-26T12:06:10.884Z,25.34
2022-08-26T12:08:40.724Z,25.80
2022-08-26T12:11:07.405Z,25.94
2022-08-26T12:13:34.563Z,26.09
2022-08-26T12:16:01.176Z,26.31
2022-08-26T12:18:28.751Z,26.33
2022-08-26T12:20:56.616Z,26.35
2022-08-26T12:23:23.072Z,26.41
2022-08-26T12:25:50.373Z,26.60
2022-08-26T12:28:17.592Z,26.47
2022-08-26T12:30:46.086Z,26.52
2022-08-26T12:33:22.694Z,26.53
2022-08-26T12:35:54.202Z,26.51
2022-08-26T12:38:22.736Z,26.46
2022-08-26T12:40:49.208Z,26.50
2022-08-26T12:43:16.318Z,26.38
2022-08-26T12:45:42.779Z,26.38
2022-08-26T12:48:09.385Z,26.44
2022-08-26T12:50:35.985Z,26.50
2022-08-26T12:53:02.440Z,26.38
2022-08-26T12:55:28.849Z,26.44
2022-08-26T12:57:55.608Z,26.40
2022-08-26T13:00:22.026Z,26.62
2022-08-26T13:02:54.959Z,26.68
2022-08-26T13:05:21.454Z,26.92
2022-08-26T13:07:48.428Z,26.90
2022-08-26T13:10:14.885Z,26.75
2022-08-26T13:12:41.488Z,26.87
2022-08-26T13:15:07.919Z,26.59
2022-08-26T13:17:34.390Z,26.68
2022-08-26T13:20:03.785Z,26.31
2022-08-26T13:22:31.037Z,26.71
2022-08-26T13:24:57.502Z,26.55
2022-08-26T13:27:24.004Z,26.75
2022-08-26T13:29:50.428Z,26.56
2022-08-26T13:32:17.373Z,26.18
2022-08-26T13:34:47.127Z,26.41
2022-08-26T13:37:17.091Z,26.69
2022-08-26T13:39:43.524Z,26.99
2022-08-26T13:42:10.166Z,27.06
2022-08-26T13:44:36.779Z,27.01
2022-08-26T13:47:03.532Z,27.00
2022-08-26T13:49:29.990Z,26.94
2022-08-26T13:51:56.463Z,27.08
2022-08-26T13:54:23.161Z,27.04
2022-08-26T13:56:49.568Z,26.84
2022-08-26T13:59:16.107Z,26.88
2022-08-26T14:01:42.620Z,26.95
2022-08-26T14:04:09.089Z,26.99
2022-08-26T14:06:35.560Z,27.19
2022-08-26T14:09:02.349Z,27.21
2022-08-26T14:11:28.929Z,27.23
2022-08-26T14:14:01.240Z,27.28
2022-08-26T14:16:27.990Z,27.29
2022-08-26T14:18:54.533Z,27.33
2022-08-26T14:21:20.983Z,27.38
2022-08-26T14:23:47.630Z,27.48
2022-08-26T14:26:28.242Z,27.73
2022-08-26T14:28:56.025Z,27.92
2022-08-26T14:31:22.544Z,28.04
2022-08-26T14:33:49.059Z,28.13
2022-08-26T14:36:15.760Z,28.15
2022-08-26T14:38:42.264Z,28.24
2022-08-26T14:41:08.713Z,28.29
2022-08-26T14:43:35.459Z,28.45
2022-08-26T14:46:01.952Z,28.39
2022-08-26T14:48:28.488Z,28.38
2022-08-26T14:50:54.925Z,28.39
2022-08-26T14:53:21.455Z,28.53
2022-08-26T14:55:47.891Z,28.40
2022-08-26T14:58:14.556Z,28.44
2022-08-26T15:00:41.244Z,28.17
2022-08-26T15:03:07.785Z,27.96
2022-08-26T15:05:34.498Z,27.90
2022-08-26T15:08:01.032Z,27.91
2022-08-26T15:10:27.490Z,27.81
2022-08-26T15:12:54.095Z,27.88
2022-08-26T15:15:20.541Z,27.90
2022-08-26T15:17:47.088Z,27.84
2022-08-26T15:20:16.213Z,27.94
2022-08-26T15:22:42.685Z,27.92
2022-08-26T15:25:09.803Z,27.83
2022-08-26T15:27:36.415Z,27.80
2022-08-26T15:30:02.871Z,27.78
2022-08-26T15:32:29.347Z,27.90
2022-08-26T15:34:55.972Z,27.99
2022-08-26T15:37:22.444Z,28.20
2022-08-26T15:39:48.950Z,28.35
2022-08-26T15:42:15.496Z,28.51
2022-08-26T15:44:41.936Z,28.69
2022-08-26T15:47:08.387Z,28.57
2022-08-26T15:49:35.314Z,28.57
2022-08-26T15:52:03.458Z,28.67
2022-08-26T15:54:31.755Z,28.56
2022-08-26T15:56:58.304Z,28.43
2022-08-26T15:59:24.801Z,28.38
2022-08-26T16:01:51.351Z,28.23
2022-08-26T16:04:18.118Z,28.17
2022-08-26T16:06:44.545Z,28.17
2022-08-26T16:09:11.033Z,28.20
2022-08-26T16:11:37.478Z,28.12
2022-08-26T16:14:03.955Z,27.91
2022-08-26T16:16:30.453Z,27.80
2022-08-26T16:18:57.136Z,27.75
2022-08-26T16:21:23.571Z,27.83
2022-08-26T16:23:50.013Z,27.86
2022-08-26T16:26:16.658Z,27.81
2022-08-26T16:28:43.652Z,27.78
2022-08-26T16:31:10.342Z,27.66
2022-08-26T16:33:37.102Z,27.65
2022-08-26T16:36:03.597Z,27.69
2022-08-26T16:38:30.541Z,27.59
2022-08-26T16:40:57.224Z,27.48
2022-08-26T16:43:23.657Z,27.43
2022-08-26T16:45:50.078Z,27.47
2022-08-26T16:48:16.813Z,27.43
2022-08-26T16:50:43.284Z,27.34
2022-08-26T16:55:41.714Z,27.22
2022-08-26T16:58:08.250Z,27.20
2022-08-26T17:00:34.813Z,27.21
2022-08-26T17:03:01.348Z,27.24
2022-08-26T17:05:27.850Z,27.26
2022-08-26T17:07:54.341Z,27.20
2022-08-26T17:10:20.965Z,27.26
2022-08-26T17:12:47.413Z,27.22
2022-08-26T17:15:13.867Z,27.09
2022-08-26T17:17:40.343Z,27.08
2022-08-26T17:20:06.762Z,27.07
2022-08-26T17:22:34.759Z,27.03
2022-08-26T17:25:01.521Z,27.01
2022-08-26T17:27:27.943Z,26.99
2022-08-26T17:29:54.402Z,27.01
2022-08-26T17:32:20.874Z,27.15
2022-08-26T17:34:47.311Z,27.16
2022-08-26T17:37:13.759Z,27.13
2022-08-26T17:39:40.421Z,26.93
2022-08-26T17:42:06.878Z,26.54
2022-08-26T17:44:33.317Z,25.31
2022-08-26T17:47:00.060Z,25.15
2022-08-26T17:49:26.593Z,24.99
2022-08-26T17:51:53.009Z,24.93
2022-08-26T17:54:19.436Z,25.01
2022-08-26T17:56:45.892Z,24.99
2022-08-26T17:59:12.559Z,25.38
2022-08-26T18:01:39.560Z,25.71
2022-08-26T18:04:06.027Z,25.50
2022-08-26T18:06:32.651Z,25.48
2022-08-26T18:08:59.339Z,25.43
2022-08-26T18:11:25.759Z,25.62
2022-08-26T18:13:52.160Z,25.35
2022-08-26T18:16:18.793Z,25.43
2022-08-26T18:18:45.290Z,25.86
2022-08-26T18:21:11.708Z,25.76
2022-08-26T18:23:38.177Z,25.18
2022-08-26T18:26:04.585Z,24.60
2022-08-26T18:28:31.164Z,24.07
2022-08-26T18:30:58.928Z,24.94
2022-08-26T18:33:25.445Z,25.36
2022-08-26T18:35:51.966Z,25.73
2022-08-26T18:38:18.854Z,25.75
2022-08-26T18:40:45.880Z,25.50
2022-08-26T18:43:12.267Z,25.57
2022-08-26T18:45:38.904Z,25.50
2022-08-26T18:48:05.331Z,25.61
2022-08-26T18:50:32.104Z,25.51
2022-08-26T18:52:58.929Z,25.40
2022-08-26T18:55:25.408Z,25.30
2022-08-26T18:57:51.903Z,25.51
2022-08-26T19:00:18.412Z,25.64
2022-08-26T19:02:50.509Z,25.67
2022-08-26T19:05:19.016Z,25.47
2022-08-26T19:07:48.001Z,25.30
2022-08-26T19:10:14.847Z,25.35
2022-08-26T19:12:41.416Z,25.40
2022-08-26T19:15:08.166Z,25.50
2022-08-26T19:17:34.597Z,25.45
2022-08-26T19:20:01.418Z,25.46
2022-08-26T19:22:29.243Z,25.45
2022-08-26T19:24:56.272Z,25.28
2022-08-26T19:27:23.947Z,25.14
2022-08-26T19:29:50.813Z,25.29
2022-08-26T19:32:17.705Z,25.37
2022-08-26T19:34:44.640Z,25.15
2022-08-26T19:37:11.489Z,24.83
2022-08-26T19:39:39.332Z,24.94
2022-08-26T19:42:06.341Z,25.01
2022-08-26T19:44:33.148Z,25.19
2022-08-26T19:47:00.079Z,25.17
2022-08-26T19:49:27.093Z,25.19
2022-08-26T19:51:53.883Z,25.23
2022-08-26T19:54:21.687Z,25.23
2022-08-26T19:56:49.827Z,25.05
2022-08-26T19:59:16.900Z,25.17
2022-08-26T20:01:43.684Z,25.16
2022-08-26T20:04:13.085Z,25.11
2022-08-26T20:06:39.930Z,25.18
2022-08-26T20:09:09.090Z,24.99
2022-08-26T20:11:36.812Z,25.11
2022-08-26T20:14:03.739Z,25.08
2022-08-26T20:16:30.558Z,25.09
2022-08-26T20:18:57.685Z,25.10
2022-08-26T20:21:24.455Z,24.91
2022-08-26T20:23:52.370Z,24.97
2022-08-26T20:26:19.379Z,24.93
2022-08-26T20:28:46.702Z,24.95
2022-08-26T20:31:18.265Z,24.96
2022-08-26T20:33:46.541Z,24.96
2022-08-26T20:36:13.537Z,24.99
2022-08-26T20:38:40.143Z,24.85
2022-08-26T20:41:06.937Z,24.87
2022-08-26T20:43:33.903Z,24.86
2022-08-26T20:46:02.561Z,24.72
2022-08-26T20:48:34.935Z,24.65
2022-08-26T20:51:01.434Z,24.73
2022-08-26T20:53:28.505Z,24.53
2022-08-26T20:55:58.005Z,24.53
2022-08-26T20:58:24.734Z,24.61
2022-08-26T21:00:51.549Z,24.55
2022-08-26T21:03:19.054Z,24.51
2022-08-26T21:05:46.705Z,24.64
2022-08-26T21:08:13.303Z,24.66
2022-08-26T21:10:39.992Z,24.59
2022-08-26T21:13:06.570Z,24.63
2022-08-26T21:15:33.192Z,24.68
2022-08-26T21:17:59.928Z,24.49
2022-08-26T21:20:27.650Z,24.33
2022-08-26T21:22:54.141Z,24.49
2022-08-26T21:25:20.886Z,24.15
2022-08-26T21:27:47.443Z,24.24
2022-08-26T21:30:14.027Z,23.93
2022-08-26T21:32:40.982Z,24.00
2022-08-26T21:35:07.683Z,24.08
2022-08-26T21:37:34.492Z,24.36
2022-08-26T21:40:01.187Z,23.89
2022-08-26T21:42:27.735Z,23.31
2022-08-26T21:44:54.264Z,23.01
2022-08-26T21:47:21.183Z,23.31
2022-08-26T21:49:47.806Z,22.93
2022-08-26T21:52:14.398Z,22.22
2022-08-26T21:54:49.448Z,22.44
2022-08-26T21:57:16.885Z,22.22
2022-08-26T21:59:43.568Z,22.50
2022-08-26T22:02:10.947Z,23.08
2022-08-26T22:04:37.604Z,22.61
2022-08-26T22:07:04.423Z,22.51
2022-08-26T22:09:31.890Z,22.21
2022-08-26T22:12:05.868Z,22.26
2022-08-26T22:14:32.708Z,21.76
2022-08-26T22:16:59.317Z,21.95
2022-08-26T22:19:26.883Z,22.12
2022-08-26T22:21:53.453Z,22.34
2022-08-26T22:24:20.002Z,22.17
2022-08-26T22:26:46.499Z,22.27
2022-08-26T22:29:13.037Z,22.38
2022-08-26T22:31:39.508Z,22.91
2022-08-26T22:34:06.083Z,22.74
2022-08-26T22:36:33.073Z,22.90
2022-08-26T22:38:59.544Z,23.24
2022-08-26T22:41:26.097Z,23.03
2022-08-26T22:43:52.637Z,22.61
2022-08-26T22:46:19.171Z,22.52
2022-08-26T22:48:45.729Z,22.78
2022-08-26T22:51:16.782Z,22.45
2022-08-26T22:53:43.380Z,22.63
2022-08-26T22:56:09.843Z,22.43
2022-08-26T22:58:36.870Z,22.45
2022-08-26T23:01:03.440Z,22.24
2022-08-26T23:03:30.568Z,22.57
2022-08-26T23:05:57.106Z,22.74
2022-08-26T23:08:23.625Z,22.46
2022-08-26T23:10:53.441Z,22.75
2022-08-26T23:13:20.120Z,22.61
2022-08-26T23:15:46.585Z,22.52
2022-08-26T23:18:13.636Z,22.72
2022-08-26T23:20:40.608Z,22.77
2022-08-26T23:23:08.238Z,22.50
2022-08-26T23:25:34.736Z,21.99
2022-08-26T23:28:01.984Z,22.25
2022-08-26T23:30:28.466Z,22.51
2022-08-26T23:32:55.038Z,22.74
2022-08-26T23:35:21.616Z,22.64
2022-08-26T23:37:50.080Z,22.60
2022-08-26T23:40:17.144Z,22.70
2022-08-26T23:42:43.967Z,22.61
2022-08-26T23:45:10.563Z,22.59
2022-08-26T23:47:37.112Z,21.86
2022-08-26T23:50:04.143Z,21.78
2022-08-26T23:52:33.054Z,22.00
2022-08-26T23:54:59.653Z,22.10
2022-08-26T23:57:28.791Z,22.02
2022-08-26T23:59:55.309Z,21.85
